createdAt,value
2019-04-03T00:00:49.901Z,29.9580
2019-04-03T00:01:52.246Z,29.9443
2019-04-03T00:02:54.550Z,29.9290
2019-04-03T00:03:56.843Z,29.8985
2019-04-03T00:04:59.134Z,29.9748
2019-04-03T00:06:01.425Z,29.8650
2019-04-03T00:07:05.419Z,29.9290
2019-04-03T00:08:07.914Z,29.8833
2019-04-03T00:09:10.219Z,29.9580
2019-04-03T00:10:12.519Z,29.9611
2019-04-03T00:11:14.814Z,29.9260
2019-04-03T00:12:17.116Z,29.7932
2019-04-03T00:13:19.416Z,29.8665
2019-04-03T00:14:21.707Z,29.8512
2019-04-03T00:15:24.001Z,29.7780
2019-04-03T00:16:26.292Z,29.7475
2019-04-03T00:17:28.577Z,29.7337
2019-04-03T00:18:30.874Z,29.6742
2019-04-03T00:19:33.165Z,29.7642
2019-04-03T00:20:35.457Z,29.6269
2019-04-03T00:21:37.756Z,29.7642
2019-04-03T00:22:40.182Z,29.6269
2019-04-03T00:23:42.495Z,29.6147
2019-04-03T00:24:44.791Z,29.5674
2019-04-03T00:25:47.085Z,29.4347
2019-04-03T00:26:52.001Z,29.4682
2019-04-03T00:27:54.949Z,29.5537
2019-04-03T00:28:57.239Z,29.4804
2019-04-03T00:29:59.536Z,29.4179
2019-04-03T00:31:01.836Z,29.5094
2019-04-03T00:32:04.127Z,29.4499
2019-04-03T00:33:06.416Z,29.4667
2019-04-03T00:34:08.754Z,29.4209
2019-04-03T00:35:11.050Z,29.3904
2019-04-03T00:36:13.393Z,29.3904
2019-04-03T00:37:15.687Z,29.3156
2019-04-03T00:38:18.000Z,29.3339
2019-04-03T00:39:20.285Z,29.2744
2019-04-03T00:40:22.706Z,29.2287
2019-04-03T00:41:26.708Z,29.3294
2019-04-03T00:42:29.009Z,29.3477
2019-04-03T00:43:31.292Z,29.3721
2019-04-03T00:44:33.589Z,29.1829
2019-04-03T00:45:35.877Z,29.2103
2019-04-03T00:46:38.165Z,29.1371
2019-04-03T00:47:40.469Z,29.1981
2019-04-03T00:48:42.761Z,29.1508
2019-04-03T00:49:45.053Z,29.0639
2019-04-03T00:50:47.348Z,29.2073
2019-04-03T00:51:49.641Z,29.1188
2019-04-03T00:52:51.939Z,29.1325
2019-04-03T00:53:54.269Z,29.0150
2019-04-03T00:54:57.095Z,29.0471
2019-04-03T00:55:59.451Z,29.1188
2019-04-03T00:57:01.741Z,29.0639
2019-04-03T00:58:04.034Z,29.1295
2019-04-03T00:59:06.360Z,29.0471
2019-04-03T01:00:08.654Z,29.0318
2019-04-03T01:01:10.966Z,28.9418
2019-04-03T01:02:13.253Z,29.0745
2019-04-03T01:03:15.541Z,28.9143
2019-04-03T01:04:17.838Z,29.0181
2019-04-03T01:05:20.126Z,29.0288
2019-04-03T01:06:22.431Z,28.9860
2019-04-03T01:07:24.868Z,28.9097
2019-04-03T01:08:29.055Z,28.9555
2019-04-03T01:09:31.608Z,29.0288
2019-04-03T01:10:33.918Z,28.9860
2019-04-03T01:11:36.238Z,28.9677
2019-04-03T01:12:38.538Z,29.0425
2019-04-03T01:13:40.838Z,28.9128
2019-04-03T01:14:43.128Z,28.8914
2019-04-03T01:15:45.516Z,28.9647
2019-04-03T01:16:47.806Z,28.8182
2019-04-03T01:17:50.106Z,28.9509
2019-04-03T01:18:52.394Z,28.8945
2019-04-03T01:19:54.690Z,28.7129
2019-04-03T01:20:56.990Z,28.5527
2019-04-03T01:21:59.282Z,28.7861
2019-04-03T01:23:01.737Z,28.7572
2019-04-03T01:24:04.047Z,28.6702
2019-04-03T01:25:08.273Z,28.8045
2019-04-03T01:26:11.027Z,28.6854
2019-04-03T01:27:13.333Z,28.7755
2019-04-03T01:28:15.624Z,28.7404
2019-04-03T01:29:17.913Z,28.6702
2019-04-03T01:30:20.374Z,28.7114
2019-04-03T01:31:22.775Z,28.7861
2019-04-03T01:32:25.079Z,28.8304
2019-04-03T01:33:27.367Z,28.5939
2019-04-03T01:34:29.726Z,28.6351
2019-04-03T01:35:32.022Z,28.5939
2019-04-03T01:36:34.312Z,28.5512
2019-04-03T01:37:36.611Z,28.5786
2019-04-03T01:38:38.902Z,28.5237
2019-04-03T01:39:41.281Z,28.6107
2019-04-03T01:40:43.577Z,28.5924
2019-04-03T01:41:45.867Z,28.4596
2019-04-03T01:42:48.358Z,28.4459
2019-04-03T01:43:53.494Z,28.5481
2019-04-03T01:44:56.098Z,28.4428
2019-04-03T01:45:58.389Z,28.4596
2019-04-03T01:47:00.830Z,28.4596
2019-04-03T01:48:03.276Z,28.6213
2019-04-03T01:49:05.574Z,28.6519
2019-04-03T01:50:07.871Z,28.5191
2019-04-03T01:51:10.160Z,28.5008
2019-04-03T01:52:12.554Z,28.5924
2019-04-03T01:53:14.864Z,28.5740
2019-04-03T01:54:17.149Z,28.5161
2019-04-03T01:55:19.438Z,28.4886
2019-04-03T01:56:21.746Z,28.4871
2019-04-03T01:57:24.042Z,28.6213
2019-04-03T01:58:26.333Z,28.5161
2019-04-03T01:59:28.631Z,28.5924
2019-04-03T02:00:30.920Z,28.5893
2019-04-03T02:01:33.345Z,28.5573
2019-04-03T02:02:36.845Z,28.5298
2019-04-03T02:03:41.640Z,28.6198
2019-04-03T02:04:44.502Z,28.5893
2019-04-03T02:05:54.335Z,28.6015
2019-04-03T02:06:56.635Z,28.7037
2019-04-03T02:07:58.932Z,28.6305
2019-04-03T02:09:01.230Z,28.6763
2019-04-03T02:10:03.526Z,28.5740
2019-04-03T02:11:13.369Z,28.6198
2019-04-03T02:12:15.673Z,28.6305
2019-04-03T02:13:18.218Z,28.6442
2019-04-03T02:14:21.654Z,28.6610
2019-04-03T02:15:24.464Z,28.7480
2019-04-03T02:16:26.955Z,28.6580
2019-04-03T02:17:29.271Z,28.7205
2019-04-03T02:18:31.738Z,28.6748
2019-04-03T02:19:34.049Z,28.7037
2019-04-03T02:20:36.478Z,28.7800
2019-04-03T02:21:38.778Z,28.8075
2019-04-03T02:22:41.079Z,28.7175
2019-04-03T02:23:43.509Z,28.7770
2019-04-03T02:24:45.842Z,28.7480
2019-04-03T02:25:48.127Z,28.8670
2019-04-03T02:26:50.422Z,28.8350
2019-04-03T02:27:52.714Z,28.8640
2019-04-03T02:28:55.000Z,28.9540
2019-04-03T02:29:57.303Z,28.9052
2019-04-03T02:30:59.612Z,28.8808
2019-04-03T02:32:01.928Z,28.9372
2019-04-03T02:33:04.260Z,28.9693
2019-04-03T02:34:06.672Z,28.8624
2019-04-03T02:35:09.018Z,28.9082
2019-04-03T02:36:12.192Z,28.9509
2019-04-03T02:37:17.001Z,28.9967
2019-04-03T02:38:22.588Z,28.9677
2019-04-03T02:39:27.525Z,29.0547
2019-04-03T02:40:32.692Z,29.0425
2019-04-03T02:41:36.932Z,29.0867
2019-04-03T02:42:41.526Z,29.0547
2019-04-03T02:43:46.266Z,29.1005
2019-04-03T02:44:50.912Z,28.9784
2019-04-03T02:45:56.347Z,29.0272
2019-04-03T02:47:00.940Z,29.1112
2019-04-03T02:48:05.667Z,29.0517
2019-04-03T02:49:10.132Z,29.0974
2019-04-03T02:50:14.322Z,29.0822
2019-04-03T02:51:19.757Z,29.1249
2019-04-03T02:52:25.325Z,29.1737
2019-04-03T02:53:30.477Z,29.0822
2019-04-03T02:54:35.735Z,29.1234
2019-04-03T02:55:39.758Z,29.2149
2019-04-03T02:56:45.238Z,29.2439
2019-04-03T02:57:49.319Z,29.2302
2019-04-03T02:58:53.947Z,29.1981
2019-04-03T02:59:58.767Z,29.2287
2019-04-03T03:01:05.594Z,29.3172
2019-04-03T03:02:11.464Z,29.3034
2019-04-03T03:03:17.170Z,29.3446
2019-04-03T03:04:21.965Z,29.3446
2019-04-03T03:05:26.708Z,29.4041
2019-04-03T03:06:32.783Z,29.4209
2019-04-03T03:07:36.378Z,29.4621
2019-04-03T03:08:41.655Z,29.4347
2019-04-03T03:09:46.627Z,29.3019
2019-04-03T03:10:52.099Z,29.4347
2019-04-03T03:11:56.349Z,29.4347
2019-04-03T03:13:01.361Z,29.5369
2019-04-03T03:14:07.265Z,29.5354
2019-04-03T03:15:11.978Z,29.6407
2019-04-03T03:16:17.956Z,29.5644
2019-04-03T03:17:22.498Z,29.5811
2019-04-03T03:18:27.182Z,29.5644
2019-04-03T03:19:33.069Z,29.6086
2019-04-03T03:20:38.631Z,29.5781
2019-04-03T03:21:44.706Z,29.6651
2019-04-03T03:22:50.575Z,29.6101
2019-04-03T03:23:56.224Z,29.6651
2019-04-03T03:25:01.169Z,29.6681
2019-04-03T03:26:04.992Z,29.7871
2019-04-03T03:27:09.228Z,29.7551
2019-04-03T03:28:14.363Z,29.7551
2019-04-03T03:29:19.711Z,29.7978
2019-04-03T03:30:44.377Z,29.7276
2019-04-03T03:31:59.819Z,29.8695
2019-04-03T03:32:42.192Z,29.8878
2019-04-03T03:33:45.287Z,29.9855
2019-04-03T03:34:56.873Z,29.8695
2019-04-03T03:35:56.285Z,29.9153
2019-04-03T03:37:02.190Z,29.9580
2019-04-03T03:38:07.126Z,29.9153
2019-04-03T03:39:11.615Z,29.9443
2019-04-03T03:40:16.149Z,29.9901
2019-04-03T03:41:22.071Z,29.8665
2019-04-03T03:42:30.100Z,29.8695
2019-04-03T03:43:32.268Z,30.0313
2019-04-03T03:44:34.869Z,29.9580
2019-04-03T03:45:37.202Z,30.0893
2019-04-03T03:46:39.579Z,30.0755
2019-04-03T03:47:42.447Z,30.1183
2019-04-03T03:48:45.671Z,30.1045
2019-04-03T03:49:49.627Z,30.1030
2019-04-03T03:50:55.653Z,30.0587
2019-04-03T03:52:02.757Z,30.1213
2019-04-03T03:53:10.272Z,30.1946
2019-04-03T03:54:16.897Z,30.0587
2019-04-03T03:55:22.809Z,30.1320
2019-04-03T03:56:30.370Z,30.2907
2019-04-03T03:57:33.582Z,30.2174
2019-04-03T03:58:35.900Z,30.2312
2019-04-03T03:59:38.436Z,30.2907
2019-04-03T04:00:40.823Z,30.1762
2019-04-03T04:01:43.145Z,30.2144
2019-04-03T04:02:45.437Z,30.3059
2019-04-03T04:03:47.844Z,30.2770
2019-04-03T04:04:50.179Z,30.2602
2019-04-03T04:05:55.607Z,30.2602
2019-04-03T04:07:02.085Z,30.2785
2019-04-03T04:08:09.216Z,30.2922
2019-04-03T04:09:15.583Z,30.3227
2019-04-03T04:10:23.557Z,30.3960
2019-04-03T04:11:30.129Z,30.3090
2019-04-03T04:12:33.308Z,30.2037
2019-04-03T04:13:35.907Z,30.2876
2019-04-03T04:14:38.401Z,30.2464
2019-04-03T04:15:40.737Z,30.3593
2019-04-03T04:16:43.048Z,30.4509
2019-04-03T04:17:48.509Z,30.4829
2019-04-03T04:18:55.956Z,30.5989
2019-04-03T04:20:02.932Z,30.4967
2019-04-03T04:21:10.553Z,30.6172
2019-04-03T04:22:16.599Z,30.4372
2019-04-03T04:23:23.160Z,30.3914
2019-04-03T04:24:28.074Z,30.4234
2019-04-03T04:25:32.030Z,30.4509
2019-04-03T04:26:34.337Z,30.4646
2019-04-03T04:27:38.542Z,30.6111
2019-04-03T04:28:41.384Z,30.5379
2019-04-03T04:29:43.676Z,30.4646
2019-04-03T04:30:45.962Z,30.6996
2019-04-03T04:31:48.257Z,30.9224
2019-04-03T04:32:50.550Z,30.7027
2019-04-03T04:33:52.945Z,30.5425
2019-04-03T04:34:55.277Z,30.5837
2019-04-03T04:35:57.573Z,30.5669
2019-04-03T04:37:02.161Z,30.4662
2019-04-03T04:38:05.347Z,30.6569
2019-04-03T04:39:07.637Z,30.6569
2019-04-03T04:40:10.001Z,30.5379
2019-04-03T04:41:12.440Z,30.6294
2019-04-03T04:42:14.804Z,30.5974
2019-04-03T04:43:17.099Z,30.6706
2019-04-03T04:44:19.404Z,30.7439
2019-04-03T04:45:21.694Z,30.8904
2019-04-03T04:46:23.982Z,30.8034
2019-04-03T04:47:26.277Z,30.7408
2019-04-03T04:48:28.745Z,30.8598
2019-04-03T04:49:31.081Z,30.9331
2019-04-03T04:50:33.379Z,30.8721
2019-04-03T04:51:35.813Z,30.8598
2019-04-03T04:52:38.107Z,30.8598
2019-04-03T04:53:40.400Z,30.8003
2019-04-03T04:54:43.018Z,30.8736
2019-04-03T04:55:45.400Z,30.9041
2019-04-03T04:56:47.725Z,30.9316
2019-04-03T04:57:50.031Z,30.9316
2019-04-03T04:58:52.550Z,30.8583
2019-04-03T04:59:54.866Z,30.8721
2019-04-03T05:00:57.164Z,30.7851
2019-04-03T05:01:59.464Z,30.9056
2019-04-03T05:03:02.186Z,30.8598
2019-04-03T05:04:04.518Z,30.8766
2019-04-03T05:05:09.034Z,30.8461
2019-04-03T05:06:11.509Z,30.7637
2019-04-03T05:07:16.505Z,30.7622
2019-04-03T05:08:19.569Z,30.7485
2019-04-03T05:09:21.861Z,30.7759
2019-04-03T05:10:24.181Z,30.6935
2019-04-03T05:11:26.480Z,30.7179
2019-04-03T05:12:28.770Z,30.7805
2019-04-03T05:13:31.181Z,30.6950
2019-04-03T05:14:33.665Z,30.8690
2019-04-03T05:15:35.966Z,30.7576
2019-04-03T05:16:38.254Z,30.7393
2019-04-03T05:17:40.722Z,31.0338
2019-04-03T05:18:43.023Z,30.9468
2019-04-03T05:19:46.885Z,31.0933
2019-04-03T05:20:51.431Z,30.7256
2019-04-03T05:21:53.725Z,30.9316
2019-04-03T05:22:56.034Z,30.9957
2019-04-03T05:24:10.682Z,30.9636
2019-04-03T05:25:06.583Z,31.1147
2019-04-03T05:26:08.915Z,31.1147
2019-04-03T05:27:11.225Z,31.0094
2019-04-03T05:28:13.516Z,31.1711
2019-04-03T05:29:15.802Z,31.1147
2019-04-03T05:30:20.303Z,30.9682
2019-04-03T05:31:23.286Z,31.0689
2019-04-03T05:32:25.608Z,31.1742
2019-04-03T05:33:27.906Z,31.0552
2019-04-03T05:34:30.357Z,31.1009
2019-04-03T05:35:32.666Z,31.0246
2019-04-03T05:36:35.156Z,31.6014
2019-04-03T05:37:37.463Z,31.2764
2019-04-03T05:38:39.754Z,31.1345
2019-04-03T05:39:42.238Z,30.9865
2019-04-03T05:40:44.730Z,31.1757
2019-04-03T05:41:47.032Z,31.2169
2019-04-03T05:42:49.337Z,31.1162
2019-04-03T05:43:51.639Z,31.2490
2019-04-03T05:44:53.945Z,31.1742
2019-04-03T05:45:56.249Z,31.2078
2019-04-03T05:46:59.659Z,31.2337
2019-04-03T05:48:02.330Z,31.3985
2019-04-03T05:49:04.646Z,31.4733
2019-04-03T05:50:06.943Z,31.3405
2019-04-03T05:51:09.477Z,31.5038
2019-04-03T05:52:11.784Z,31.4733
2019-04-03T05:53:14.096Z,31.4733
2019-04-03T05:54:16.385Z,31.4580
2019-04-03T05:55:18.850Z,31.5328
2019-04-03T05:56:21.153Z,31.4733
2019-04-03T05:57:23.439Z,31.4595
2019-04-03T05:58:25.735Z,31.3542
2019-04-03T05:59:28.031Z,31.3710
2019-04-03T06:00:30.523Z,31.4046
2019-04-03T06:01:32.833Z,31.4031
2019-04-03T06:02:35.184Z,31.2428
2019-04-03T06:03:42.293Z,31.4809
2019-04-03T06:04:45.846Z,31.5190
2019-04-03T06:05:48.183Z,31.5785
2019-04-03T06:06:50.488Z,31.4183
2019-04-03T06:07:52.797Z,31.4900
2019-04-03T06:08:57.003Z,31.5358
2019-04-03T06:09:59.588Z,31.6274
2019-04-03T06:11:03.982Z,31.5053
2019-04-03T06:12:09.055Z,31.2383
2019-04-03T06:13:11.732Z,31.6701
2019-04-03T06:14:14.023Z,31.3893
2019-04-03T06:15:16.326Z,31.4321
2019-04-03T06:16:18.639Z,31.2886
2019-04-03T06:17:20.933Z,31.3893
2019-04-03T06:18:25.645Z,31.3909
2019-04-03T06:19:28.790Z,31.8334
2019-04-03T06:20:31.101Z,31.7845
2019-04-03T06:21:33.390Z,31.7296
2019-04-03T06:22:35.680Z,31.7922
2019-04-03T06:23:37.974Z,31.5679
2019-04-03T06:24:40.274Z,31.3634
2019-04-03T06:25:42.684Z,31.5831
2019-04-03T06:26:45.125Z,31.6701
2019-04-03T06:27:47.427Z,31.4122
2019-04-03T06:28:49.728Z,31.4366
2019-04-03T06:29:54.783Z,31.7922
2019-04-03T06:30:57.626Z,31.7067
2019-04-03T06:32:00.178Z,31.4229
2019-04-03T06:33:02.683Z,31.7937
2019-04-03T06:34:07.014Z,31.4961
2019-04-03T06:35:09.728Z,31.4397
2019-04-03T06:36:12.099Z,31.4687
2019-04-03T06:37:14.394Z,31.4397
2019-04-03T06:38:16.998Z,31.7510
2019-04-03T06:39:22.292Z,31.7205
2019-04-03T06:40:25.854Z,31.6045
2019-04-03T06:41:28.281Z,31.5282
2019-04-03T06:42:30.749Z,31.4534
2019-04-03T06:43:33.268Z,31.3802
2019-04-03T06:44:35.598Z,31.4122
2019-04-03T06:45:37.912Z,31.3527
2019-04-03T06:46:40.206Z,31.4092
2019-04-03T06:47:42.516Z,31.3802
2019-04-03T06:48:44.930Z,31.3664
2019-04-03T06:49:47.233Z,31.3664
2019-04-03T06:50:49.528Z,31.2901
2019-04-03T06:51:52.068Z,31.3359
2019-04-03T06:52:54.392Z,31.3939
2019-04-03T06:53:58.811Z,31.3664
2019-04-03T06:55:03.316Z,31.3085
2019-04-03T06:56:08.666Z,31.2932
2019-04-03T06:57:13.343Z,31.3542
2019-04-03T06:58:16.025Z,31.2810
2019-04-03T06:59:18.387Z,31.3130
2019-04-03T07:00:20.691Z,31.3863
2019-04-03T07:01:22.986Z,31.3268
2019-04-03T07:02:27.743Z,31.3710
2019-04-03T07:03:33.690Z,31.4031
2019-04-03T07:04:38.403Z,31.3298
2019-04-03T07:05:41.980Z,31.3863
2019-04-03T07:06:45.216Z,31.4031
2019-04-03T07:07:47.899Z,31.5084
2019-04-03T07:08:50.198Z,31.9951
2019-04-03T07:09:52.493Z,31.3726
2019-04-03T07:10:55.458Z,31.3313
2019-04-03T07:11:57.919Z,31.2901
2019-04-03T07:13:00.210Z,31.2154
2019-04-03T07:14:02.633Z,31.2474
2019-04-03T07:15:04.956Z,31.3176
2019-04-03T07:16:07.318Z,31.3313
2019-04-03T07:17:09.650Z,31.3756
2019-04-03T07:18:11.953Z,31.3909
2019-04-03T07:19:14.429Z,31.3726
2019-04-03T07:20:18.912Z,31.3619
2019-04-03T07:21:23.930Z,31.3161
2019-04-03T07:22:36.266Z,31.2993
2019-04-03T07:23:47.069Z,31.3313
2019-04-03T07:24:57.199Z,31.3451
2019-04-03T07:25:59.531Z,31.3024
2019-04-03T07:27:01.837Z,31.2901
2019-04-03T07:28:12.136Z,31.2764
2019-04-03T07:29:25.120Z,31.2169
2019-04-03T07:30:28.344Z,31.3771
2019-04-03T07:31:30.633Z,31.3176
2019-04-03T07:32:32.926Z,31.3481
2019-04-03T07:33:35.236Z,31.3634
2019-04-03T07:34:37.533Z,31.3359
2019-04-03T07:35:40.623Z,31.2932
2019-04-03T07:36:45.294Z,31.2932
2019-04-03T07:37:49.030Z,31.2795
2019-04-03T07:38:53.363Z,31.1894
2019-04-03T07:39:58.329Z,31.2383
2019-04-03T07:41:01.261Z,31.2245
2019-04-03T07:42:03.735Z,31.2840
2019-04-03T07:43:06.110Z,31.2840
2019-04-03T07:44:08.435Z,31.2520
2019-04-03T07:45:10.730Z,31.2383
2019-04-03T07:46:13.036Z,31.2398
2019-04-03T07:47:15.335Z,31.2993
2019-04-03T07:48:17.626Z,31.2993
2019-04-03T07:49:19.926Z,31.3298
2019-04-03T07:50:22.261Z,31.2535
2019-04-03T07:51:24.763Z,31.3130
2019-04-03T07:52:27.074Z,31.2856
2019-04-03T07:53:29.371Z,31.2749
2019-04-03T07:54:31.237Z,31.2718
2019-04-03T07:55:33.527Z,31.2856
2019-04-03T07:56:35.860Z,31.3176
2019-04-03T07:57:40.419Z,31.3313
2019-04-03T07:58:43.732Z,31.3481
2019-04-03T07:59:46.135Z,31.3069
2019-04-03T08:00:48.442Z,31.3359
2019-04-03T08:01:50.739Z,31.3344
2019-04-03T08:02:53.041Z,31.3207
2019-04-03T08:03:55.361Z,31.3634
2019-04-03T08:04:59.995Z,31.3817
2019-04-03T08:06:04.300Z,31.4092
2019-04-03T08:07:06.763Z,31.4260
2019-04-03T08:08:09.058Z,31.3527
2019-04-03T08:09:11.357Z,31.3954
2019-04-03T08:10:13.649Z,31.5007
2019-04-03T08:11:15.953Z,31.4855
2019-04-03T08:12:18.547Z,31.4855
2019-04-03T08:13:21.126Z,31.4412
2019-04-03T08:14:23.476Z,31.4137
2019-04-03T08:15:25.966Z,31.4122
2019-04-03T08:16:28.268Z,31.3542
2019-04-03T08:17:30.563Z,31.3985
2019-04-03T08:18:32.889Z,31.4305
2019-04-03T08:19:35.202Z,31.3588
2019-04-03T08:20:37.510Z,31.3268
2019-04-03T08:21:39.872Z,31.4458
2019-04-03T08:22:42.184Z,31.3481
2019-04-03T08:23:44.493Z,31.3726
2019-04-03T08:24:46.800Z,31.3619
2019-04-03T08:25:49.249Z,31.3481
2019-04-03T08:26:52.229Z,31.3298
2019-04-03T08:27:55.769Z,31.3939
2019-04-03T08:29:01.032Z,31.3939
2019-04-03T08:30:03.994Z,31.4076
2019-04-03T08:31:06.304Z,31.3664
2019-04-03T08:32:08.617Z,31.3527
2019-04-03T08:33:17.871Z,31.4549
2019-04-03T08:34:19.173Z,31.4870
2019-04-03T08:35:23.394Z,31.5328
2019-04-03T08:36:27.098Z,31.7983
2019-04-03T08:37:31.670Z,31.7067
2019-04-03T08:38:35.235Z,31.6915
2019-04-03T08:39:37.574Z,31.6182
2019-04-03T08:40:40.194Z,31.6335
2019-04-03T08:41:42.571Z,31.8288
2019-04-03T08:42:45.166Z,31.8105
2019-04-03T08:43:47.523Z,31.7525
2019-04-03T08:44:49.828Z,31.7556
2019-04-03T08:45:52.147Z,31.7983
2019-04-03T08:46:54.518Z,31.7281
2019-04-03T08:47:57.007Z,31.7708
2019-04-03T08:49:07.231Z,31.6823
2019-04-03T08:50:09.556Z,31.6838
2019-04-03T08:51:12.126Z,31.6365
2019-04-03T08:52:15.028Z,31.5450
2019-04-03T08:53:17.365Z,31.5053
2019-04-03T08:54:19.656Z,31.4763
2019-04-03T08:55:21.948Z,31.4458
2019-04-03T08:56:24.241Z,31.3436
2019-04-03T08:57:26.532Z,31.3436
2019-04-03T08:58:28.892Z,31.2840
2019-04-03T08:59:31.214Z,31.3024
2019-04-03T09:00:33.856Z,31.1971
2019-04-03T09:01:37.193Z,31.1513
2019-04-03T09:02:42.453Z,31.1650
2019-04-03T09:03:46.399Z,31.0918
2019-04-03T09:04:48.807Z,31.0735
2019-04-03T09:05:52.348Z,31.0613
2019-04-03T09:06:57.768Z,30.9590
2019-04-03T09:08:00.079Z,31.0750
2019-04-03T09:09:02.566Z,31.0780
2019-04-03T09:10:04.879Z,31.0643
2019-04-03T09:11:07.214Z,31.2078
2019-04-03T09:12:09.520Z,31.1833
2019-04-03T09:13:18.062Z,31.2612
2019-04-03T09:14:20.265Z,31.2886
2019-04-03T09:15:22.672Z,31.3481
2019-04-03T09:16:24.972Z,31.3359
2019-04-03T09:17:27.271Z,31.3222
2019-04-03T09:18:30.798Z,31.3954
2019-04-03T09:19:33.223Z,31.2810
2019-04-03T09:20:36.086Z,31.3085
2019-04-03T09:21:38.769Z,31.3085
2019-04-03T09:22:41.162Z,31.3222
2019-04-03T09:23:43.450Z,31.5007
2019-04-03T09:24:45.746Z,31.4916
2019-04-03T09:25:48.215Z,31.7525
2019-04-03T09:26:50.518Z,31.8715
2019-04-03T09:27:52.810Z,31.3710
2019-04-03T09:28:55.109Z,30.9682
2019-04-03T09:29:57.403Z,30.7637
2019-04-03T09:30:59.691Z,30.7301
2019-04-03T09:32:01.987Z,30.6294
2019-04-03T09:33:04.284Z,30.4509
2019-04-03T09:34:06.698Z,30.4204
2019-04-03T09:35:09.203Z,30.3456
2019-04-03T09:36:11.601Z,30.3471
2019-04-03T09:37:16.810Z,30.2556
2019-04-03T09:38:19.844Z,30.3563
2019-04-03T09:39:22.137Z,30.3563
2019-04-03T09:40:24.649Z,30.3426
2019-04-03T09:41:27.267Z,30.3792
2019-04-03T09:42:29.602Z,30.2907
2019-04-03T09:43:32.159Z,30.3059
2019-04-03T09:44:34.475Z,30.2922
2019-04-03T09:45:36.760Z,30.3792
2019-04-03T09:46:39.061Z,30.3517
2019-04-03T09:47:41.353Z,30.3792
2019-04-03T09:48:43.642Z,30.3548
2019-04-03T09:49:46.021Z,30.3975
2019-04-03T09:50:48.340Z,30.4280
2019-04-03T09:51:52.180Z,30.4112
2019-04-03T09:52:55.581Z,30.4372
2019-04-03T09:53:58.104Z,30.5425
2019-04-03T09:55:01.058Z,30.5852
2019-04-03T09:56:03.504Z,30.6401
2019-04-03T09:57:05.951Z,30.8812
2019-04-03T09:58:08.280Z,30.4341
2019-04-03T09:59:10.579Z,30.4067
2019-04-03T10:00:12.889Z,30.3639
2019-04-03T10:01:18.259Z,30.3639
2019-04-03T10:02:21.185Z,30.2739
2019-04-03T10:03:23.944Z,30.2449
2019-04-03T10:04:26.815Z,30.2770
2019-04-03T10:05:29.729Z,30.3044
2019-04-03T10:06:32.293Z,30.1869
2019-04-03T10:07:36.298Z,30.1900
2019-04-03T10:08:40.385Z,30.1549
2019-04-03T10:09:44.773Z,30.1549
2019-04-03T10:10:47.854Z,30.1442
2019-04-03T10:11:51.062Z,30.2464
2019-04-03T10:12:54.691Z,30.0954
2019-04-03T10:13:57.888Z,30.0801
2019-04-03T10:15:00.800Z,29.9947
2019-04-03T10:16:03.934Z,29.8619
2019-04-03T10:17:07.122Z,29.7704
2019-04-03T10:18:10.123Z,29.7093
2019-04-03T10:19:14.056Z,29.5903
2019-04-03T10:20:18.215Z,29.4545
2019-04-03T10:21:21.344Z,29.3660
2019-04-03T10:22:24.187Z,29.2790
2019-04-03T10:23:29.092Z,29.2195
2019-04-03T10:24:31.912Z,29.0837
2019-04-03T10:25:34.863Z,29.0242
2019-04-03T10:26:40.565Z,28.9540
2019-04-03T10:27:43.737Z,28.8670
2019-04-03T10:28:47.830Z,28.7724
2019-04-03T10:29:50.848Z,28.7907
2019-04-03T10:30:54.078Z,28.7129
2019-04-03T10:31:56.936Z,28.5832
2019-04-03T10:33:00.127Z,28.5100
2019-04-03T10:34:03.960Z,28.6397
2019-04-03T10:35:07.375Z,28.5832
2019-04-03T10:36:11.905Z,28.5649
2019-04-03T10:37:15.273Z,28.5924
2019-04-03T10:38:18.928Z,28.6259
2019-04-03T10:39:21.333Z,28.6259
2019-04-03T10:40:24.883Z,28.6564
2019-04-03T10:41:28.679Z,28.6702
2019-04-03T10:42:31.873Z,28.6809
2019-04-03T10:43:36.645Z,28.7404
2019-04-03T10:44:39.577Z,28.7266
2019-04-03T10:45:41.876Z,28.8273
2019-04-03T10:46:44.478Z,28.8716
2019-04-03T10:47:46.929Z,29.0059
2019-04-03T10:48:49.485Z,29.1066
2019-04-03T10:49:51.801Z,29.1524
2019-04-03T10:50:54.098Z,29.1936
2019-04-03T10:51:56.632Z,29.2348
2019-04-03T10:52:58.929Z,29.1783
2019-04-03T10:54:01.247Z,29.1051
2019-04-03T10:55:03.600Z,29.0730
2019-04-03T10:56:05.900Z,29.0608
2019-04-03T10:57:08.492Z,29.1020
2019-04-03T10:58:10.803Z,29.1569
2019-04-03T10:59:15.454Z,29.0455
2019-04-03T11:00:19.921Z,29.0318
2019-04-03T11:01:22.430Z,29.1752
2019-04-03T11:02:24.748Z,29.0883
2019-04-03T11:03:27.350Z,29.0288
2019-04-03T11:04:29.657Z,29.0883
2019-04-03T11:05:31.946Z,29.0333
2019-04-03T11:06:36.538Z,28.9586
2019-04-03T11:07:40.134Z,28.9998
2019-04-03T11:08:42.484Z,29.0593
2019-04-03T11:09:44.774Z,29.1417
2019-04-03T11:10:47.075Z,29.1661
2019-04-03T11:11:49.638Z,29.1508
2019-04-03T11:12:52.234Z,29.1234
2019-04-03T11:13:54.564Z,29.0044
2019-04-03T11:14:57.198Z,28.9464
2019-04-03T11:15:59.536Z,28.9082
2019-04-03T11:17:01.840Z,28.8777
2019-04-03T11:18:04.191Z,28.9052
2019-04-03T11:19:07.396Z,28.8594
2019-04-03T11:20:10.866Z,28.8045
2019-04-03T11:21:13.521Z,28.8594
2019-04-03T11:22:16.667Z,28.9174
2019-04-03T11:23:21.602Z,28.8914
2019-04-03T11:24:27.719Z,28.9906
2019-04-03T11:25:30.109Z,28.9494
2019-04-03T11:26:32.395Z,29.0745
2019-04-03T11:27:41.841Z,29.1646
2019-04-03T11:28:42.967Z,29.0959
2019-04-03T11:29:45.288Z,28.9830
2019-04-03T11:30:49.564Z,29.0105
2019-04-03T11:31:54.456Z,29.0181
2019-04-03T11:32:57.006Z,29.2103
2019-04-03T11:33:59.641Z,29.3400
2019-04-03T11:35:01.939Z,29.4682
2019-04-03T11:36:04.350Z,29.4957
2019-04-03T11:37:06.714Z,29.4942
2019-04-03T11:38:14.102Z,29.4270
2019-04-03T11:39:17.541Z,29.3584
2019-04-03T11:40:19.896Z,29.3889
2019-04-03T11:41:23.926Z,29.4209
2019-04-03T11:42:29.472Z,29.3889
2019-04-03T11:43:32.481Z,29.4453
2019-04-03T11:44:34.866Z,29.4484
2019-04-03T11:45:37.160Z,29.4026
2019-04-03T11:46:39.800Z,29.3889
2019-04-03T11:47:43.283Z,29.4041
2019-04-03T11:48:48.832Z,29.4575
2019-04-03T11:49:52.508Z,29.4026
2019-04-03T11:50:57.033Z,29.4896
2019-04-03T11:52:01.524Z,29.4865
2019-04-03T11:53:07.030Z,29.4621
2019-04-03T11:54:09.991Z,29.4179
2019-04-03T11:55:12.340Z,29.4942
2019-04-03T11:56:14.646Z,29.5186
2019-04-03T11:57:17.565Z,29.5048
2019-04-03T11:58:21.889Z,29.5506
2019-04-03T11:59:24.929Z,29.5323
2019-04-03T12:00:27.253Z,29.5735
2019-04-03T12:01:29.943Z,29.4759
2019-04-03T12:02:32.233Z,29.3889
2019-04-03T12:03:34.559Z,29.2973
2019-04-03T12:04:36.856Z,29.3248
2019-04-03T12:05:39.342Z,29.4545
2019-04-03T12:06:41.667Z,29.4850
2019-04-03T12:07:43.974Z,29.3706
2019-04-03T12:08:46.267Z,29.3309
2019-04-03T12:09:48.564Z,29.3172
2019-04-03T12:10:50.869Z,29.3568
2019-04-03T12:11:54.951Z,29.3156
2019-04-03T12:12:58.105Z,29.2760
2019-04-03T12:14:00.516Z,29.2149
2019-04-03T12:15:02.835Z,29.3263
2019-04-03T12:16:05.481Z,29.3843
2019-04-03T12:17:07.851Z,29.2988
2019-04-03T12:18:10.183Z,29.2714
2019-04-03T12:19:12.479Z,29.3431
2019-04-03T12:20:15.971Z,29.2256
2019-04-03T12:21:19.575Z,29.2576
2019-04-03T12:22:23.037Z,29.2576
2019-04-03T12:23:26.751Z,29.1829
2019-04-03T12:24:29.948Z,29.2851
2019-04-03T12:25:34.291Z,29.2576
2019-04-03T12:26:37.145Z,29.3019
2019-04-03T12:27:39.450Z,29.5216
2019-04-03T12:28:41.892Z,29.7383
2019-04-03T12:29:44.294Z,29.7505
2019-04-03T12:30:46.932Z,29.7047
2019-04-03T12:31:49.245Z,29.7795
2019-04-03T12:32:51.534Z,29.7887
2019-04-03T12:33:59.011Z,29.7429
2019-04-03T12:35:02.211Z,29.7002
2019-04-03T12:36:06.553Z,29.6147
2019-04-03T12:37:09.547Z,29.5506
2019-04-03T12:38:11.836Z,29.5232
2019-04-03T12:39:14.300Z,29.5369
2019-04-03T12:40:16.835Z,29.5949
2019-04-03T12:41:19.881Z,29.6880
2019-04-03T12:42:22.201Z,29.6910
2019-04-03T12:43:24.499Z,29.7475
2019-04-03T12:44:26.791Z,29.5766